sensor_id;sensor_type;location;lat;lon;timestamp;P1;durP1;ratioP1;P2;durP2;ratioP2
42600;SDS011;28229;48.856;9.088;2023-04-24T00:00:59;2.57;;;0.90;;
42600;SDS011;28229;48.856;9.088;2023-04-24T00:03:26;1.97;;;0.80;;
42600;SDS011;28229;48.856;9.088;2023-04-24T00:05:54;1.80;;;0.93;;
42600;SDS011;28229;48.856;9.088;2023-04-24T00:08:20;0.70;;;0.70;;
42600;SDS011;28229;48.856;9.088;2023-04-24T00:10:48;1.33;;;0.80;;
42600;SDS011;28229;48.856;9.088;2023-04-24T00:13:14;0.83;;;0.83;;
42600;SDS011;28229;48.856;9.088;2023-04-24T00:15:41;1.47;;;0.80;;
42600;SDS011;28229;48.856;9.088;2023-04-24T00:18:07;1.10;;;0.87;;
42600;SDS011;28229;48.856;9.088;2023-04-24T00:20:33;0.73;;;0.60;;
42600;SDS011;28229;48.856;9.088;2023-04-24T00:23:01;0.83;;;0.80;;
42600;SDS011;28229;48.856;9.088;2023-04-24T00:25:27;0.80;;;0.80;;
42600;SDS011;28229;48.856;9.088;2023-04-24T00:27:53;0.90;;;0.80;;
42600;SDS011;28229;48.856;9.088;2023-04-24T00:30:20;1.00;;;0.83;;
42600;SDS011;28229;48.856;9.088;2023-04-24T00:32:46;1.47;;;0.63;;
42600;SDS011;28229;48.856;9.088;2023-04-24T00:35:12;1.73;;;0.90;;
42600;SDS011;28229;48.856;9.088;2023-04-24T00:37:38;0.80;;;0.80;;
42600;SDS011;28229;48.856;9.088;2023-04-24T00:40:05;0.70;;;0.70;;
42600;SDS011;28229;48.856;9.088;2023-04-24T00:42:32;1.00;;;0.90;;
42600;SDS011;28229;48.856;9.088;2023-04-24T00:44:59;1.20;;;0.73;;
42600;SDS011;28229;48.856;9.088;2023-04-24T00:47:26;1.33;;;0.80;;
42600;SDS011;28229;48.856;9.088;2023-04-24T00:49:52;1.77;;;0.83;;
42600;SDS011;28229;48.856;9.088;2023-04-24T00:52:19;1.00;;;0.90;;
42600;SDS011;28229;48.856;9.088;2023-04-24T00:54:46;2.20;;;0.80;;
42600;SDS011;28229;48.856;9.088;2023-04-24T00:57:13;1.20;;;0.83;;
42600;SDS011;28229;48.856;9.088;2023-04-24T00:59:43;1.23;;;0.60;;
42600;SDS011;28229;48.856;9.088;2023-04-24T01:02:13;1.27;;;0.77;;
42600;SDS011;28229;48.856;9.088;2023-04-24T01:04:41;0.60;;;0.60;;
42600;SDS011;28229;48.856;9.088;2023-04-24T01:07:08;3.33;;;0.80;;
42600;SDS011;28229;48.856;9.088;2023-04-24T01:09:42;1.20;;;0.80;;
42600;SDS011;28229;48.856;9.088;2023-04-24T01:12:13;1.10;;;1.00;;
42600;SDS011;28229;48.856;9.088;2023-04-24T01:14:39;1.30;;;0.70;;
42600;SDS011;28229;48.856;9.088;2023-04-24T01:17:05;1.40;;;0.70;;
42600;SDS011;28229;48.856;9.088;2023-04-24T01:19:31;1.23;;;0.70;;
42600;SDS011;28229;48.856;9.088;2023-04-24T01:21:58;1.10;;;0.73;;
42600;SDS011;28229;48.856;9.088;2023-04-24T01:24:25;1.53;;;0.70;;
42600;SDS011;28229;48.856;9.088;2023-04-24T01:26:51;1.13;;;0.53;;
42600;SDS011;28229;48.856;9.088;2023-04-24T01:29:18;1.37;;;0.70;;
42600;SDS011;28229;48.856;9.088;2023-04-24T01:31:45;1.70;;;0.80;;
42600;SDS011;28229;48.856;9.088;2023-04-24T01:34:11;1.97;;;0.80;;
42600;SDS011;28229;48.856;9.088;2023-04-24T01:36:38;0.80;;;0.80;;
42600;SDS011;28229;48.856;9.088;2023-04-24T01:39:05;0.87;;;0.70;;
42600;SDS011;28229;48.856;9.088;2023-04-24T01:41:31;1.10;;;0.83;;
42600;SDS011;28229;48.856;9.088;2023-04-24T01:43:57;0.80;;;0.80;;
42600;SDS011;28229;48.856;9.088;2023-04-24T01:46:24;2.00;;;0.70;;
42600;SDS011;28229;48.856;9.088;2023-04-24T01:48:51;3.03;;;0.90;;
42600;SDS011;28229;48.856;9.088;2023-04-24T01:51:19;0.87;;;0.67;;
42600;SDS011;28229;48.856;9.088;2023-04-24T01:53:45;0.60;;;0.60;;
42600;SDS011;28229;48.856;9.088;2023-04-24T01:56:11;0.70;;;0.70;;
42600;SDS011;28229;48.856;9.088;2023-04-24T01:58:38;0.70;;;0.63;;
42600;SDS011;28229;48.856;9.088;2023-04-24T02:01:05;0.93;;;0.70;;
42600;SDS011;28229;48.856;9.088;2023-04-24T02:03:32;1.03;;;0.80;;
42600;SDS011;28229;48.856;9.088;2023-04-24T02:05:58;0.80;;;0.80;;
42600;SDS011;28229;48.856;9.088;2023-04-24T02:08:24;1.10;;;0.63;;
42600;SDS011;28229;48.856;9.088;2023-04-24T02:10:50;0.70;;;0.70;;
42600;SDS011;28229;48.856;9.088;2023-04-24T02:13:17;0.63;;;0.63;;
42600;SDS011;28229;48.856;9.088;2023-04-24T02:15:43;3.33;;;0.93;;
42600;SDS011;28229;48.856;9.088;2023-04-24T02:18:09;0.93;;;0.63;;
42600;SDS011;28229;48.856;9.088;2023-04-24T02:20:35;1.90;;;0.90;;
42600;SDS011;28229;48.856;9.088;2023-04-24T02:23:02;1.27;;;0.80;;
42600;SDS011;28229;48.856;9.088;2023-04-24T02:25:28;1.60;;;0.90;;
42600;SDS011;28229;48.856;9.088;2023-04-24T02:27:55;0.80;;;0.80;;
42600;SDS011;28229;48.856;9.088;2023-04-24T02:30:21;0.77;;;0.77;;
42600;SDS011;28229;48.856;9.088;2023-04-24T02:32:47;1.57;;;0.70;;
42600;SDS011;28229;48.856;9.088;2023-04-24T02:35:13;1.97;;;1.10;;
42600;SDS011;28229;48.856;9.088;2023-04-24T02:37:39;0.73;;;0.73;;
42600;SDS011;28229;48.856;9.088;2023-04-24T02:40:06;2.00;;;0.90;;
42600;SDS011;28229;48.856;9.088;2023-04-24T02:42:33;1.43;;;0.90;;
42600;SDS011;28229;48.856;9.088;2023-04-24T02:44:59;2.07;;;1.00;;
42600;SDS011;28229;48.856;9.088;2023-04-24T02:47:25;1.27;;;0.83;;
42600;SDS011;28229;48.856;9.088;2023-04-24T02:49:51;1.60;;;0.90;;
42600;SDS011;28229;48.856;9.088;2023-04-24T02:52:18;0.93;;;0.80;;
42600;SDS011;28229;48.856;9.088;2023-04-24T02:54:44;1.90;;;0.70;;
42600;SDS011;28229;48.856;9.088;2023-04-24T02:57:10;2.60;;;0.90;;
42600;SDS011;28229;48.856;9.088;2023-04-24T02:59:40;1.30;;;0.90;;
42600;SDS011;28229;48.856;9.088;2023-04-24T03:02:07;1.27;;;0.90;;
42600;SDS011;28229;48.856;9.088;2023-04-24T03:04:34;1.70;;;1.00;;
42600;SDS011;28229;48.856;9.088;2023-04-24T03:07:00;1.67;;;0.90;;
42600;SDS011;28229;48.856;9.088;2023-04-24T03:09:26;0.90;;;0.80;;
42600;SDS011;28229;48.856;9.088;2023-04-24T03:11:53;0.90;;;0.90;;
42600;SDS011;28229;48.856;9.088;2023-04-24T03:14:19;0.80;;;0.80;;
42600;SDS011;28229;48.856;9.088;2023-04-24T03:16:45;2.13;;;0.97;;
42600;SDS011;28229;48.856;9.088;2023-04-24T03:19:12;2.83;;;1.10;;
42600;SDS011;28229;48.856;9.088;2023-04-24T03:21:49;1.70;;;0.70;;
42600;SDS011;28229;48.856;9.088;2023-04-24T03:24:15;2.20;;;1.03;;
42600;SDS011;28229;48.856;9.088;2023-04-24T03:26:41;2.27;;;0.90;;
42600;SDS011;28229;48.856;9.088;2023-04-24T03:29:21;0.97;;;0.90;;
42600;SDS011;28229;48.856;9.088;2023-04-24T03:31:47;1.60;;;0.90;;
42600;SDS011;28229;48.856;9.088;2023-04-24T03:34:13;1.33;;;1.10;;
42600;SDS011;28229;48.856;9.088;2023-04-24T03:36:39;1.70;;;0.80;;
42600;SDS011;28229;48.856;9.088;2023-04-24T03:39:07;1.03;;;0.77;;
42600;SDS011;28229;48.856;9.088;2023-04-24T03:41:34;0.80;;;0.80;;
42600;SDS011;28229;48.856;9.088;2023-04-24T03:44:11;1.67;;;0.90;;
42600;SDS011;28229;48.856;9.088;2023-04-24T03:46:37;1.13;;;0.90;;
42600;SDS011;28229;48.856;9.088;2023-04-24T03:49:03;0.83;;;0.70;;
42600;SDS011;28229;48.856;9.088;2023-04-24T03:51:33;1.07;;;0.80;;
42600;SDS011;28229;48.856;9.088;2023-04-24T03:54:18;1.10;;;0.90;;
42600;SDS011;28229;48.856;9.088;2023-04-24T03:56:45;1.50;;;0.90;;
42600;SDS011;28229;48.856;9.088;2023-04-24T03:59:11;2.47;;;0.80;;
42600;SDS011;28229;48.856;9.088;2023-04-24T04:01:40;0.80;;;0.80;;
42600;SDS011;28229;48.856;9.088;2023-04-24T04:04:12;1.03;;;0.90;;
42600;SDS011;28229;48.856;9.088;2023-04-24T04:06:39;1.80;;;1.00;;
42600;SDS011;28229;48.856;9.088;2023-04-24T04:09:06;1.50;;;1.10;;
42600;SDS011;28229;48.856;9.088;2023-04-24T04:11:33;1.87;;;0.83;;
42600;SDS011;28229;48.856;9.088;2023-04-24T04:13:59;0.80;;;0.80;;
42600;SDS011;28229;48.856;9.088;2023-04-24T04:16:25;2.10;;;1.00;;
42600;SDS011;28229;48.856;9.088;2023-04-24T04:18:57;1.23;;;1.10;;
42600;SDS011;28229;48.856;9.088;2023-04-24T04:21:24;3.30;;;1.00;;
42600;SDS011;28229;48.856;9.088;2023-04-24T04:23:57;1.63;;;0.80;;
42600;SDS011;28229;48.856;9.088;2023-04-24T04:26:32;0.97;;;0.93;;
42600;SDS011;28229;48.856;9.088;2023-04-24T04:29:07;0.80;;;0.80;;
42600;SDS011;28229;48.856;9.088;2023-04-24T04:31:36;0.90;;;0.90;;
42600;SDS011;28229;48.856;9.088;2023-04-24T04:34:10;1.43;;;1.00;;
42600;SDS011;28229;48.856;9.088;2023-04-24T04:36:41;1.33;;;0.90;;
42600;SDS011;28229;48.856;9.088;2023-04-24T04:39:38;1.13;;;1.00;;
42600;SDS011;28229;48.856;9.088;2023-04-24T04:42:08;0.97;;;0.93;;
42600;SDS011;28229;48.856;9.088;2023-04-24T04:44:44;1.53;;;1.07;;
42600;SDS011;28229;48.856;9.088;2023-04-24T04:47:17;0.97;;;0.97;;
42600;SDS011;28229;48.856;9.088;2023-04-24T04:49:44;1.00;;;1.00;;
42600;SDS011;28229;48.856;9.088;2023-04-24T04:52:23;1.17;;;1.07;;
42600;SDS011;28229;48.856;9.088;2023-04-24T04:54:55;1.23;;;1.13;;
42600;SDS011;28229;48.856;9.088;2023-04-24T04:57:27;1.57;;;1.27;;
42600;SDS011;28229;48.856;9.088;2023-04-24T04:59:54;1.50;;;1.10;;
42600;SDS011;28229;48.856;9.088;2023-04-24T05:02:34;1.63;;;1.10;;
42600;SDS011;28229;48.856;9.088;2023-04-24T05:05:00;1.43;;;1.10;;
42600;SDS011;28229;48.856;9.088;2023-04-24T05:16:14;2.90;;;1.40;;
42600;SDS011;28229;48.856;9.088;2023-04-24T05:18:45;2.37;;;1.30;;
42600;SDS011;28229;48.856;9.088;2023-04-24T05:21:18;1.93;;;1.37;;
42600;SDS011;28229;48.856;9.088;2023-04-24T05:23:47;1.77;;;1.30;;
42600;SDS011;28229;48.856;9.088;2023-04-24T05:26:25;2.57;;;1.47;;
42600;SDS011;28229;48.856;9.088;2023-04-24T05:28:51;1.10;;;1.10;;
42600;SDS011;28229;48.856;9.088;2023-04-24T05:31:17;1.73;;;1.37;;
42600;SDS011;28229;48.856;9.088;2023-04-24T05:33:44;1.40;;;1.30;;
42600;SDS011;28229;48.856;9.088;2023-04-24T05:36:28;3.50;;;1.70;;
42600;SDS011;28229;48.856;9.088;2023-04-24T05:39:16;1.30;;;1.30;;
42600;SDS011;28229;48.856;9.088;2023-04-24T05:42:07;1.40;;;1.30;;
42600;SDS011;28229;48.856;9.088;2023-04-24T05:45:15;2.90;;;1.40;;
42600;SDS011;28229;48.856;9.088;2023-04-24T05:51:22;1.30;;;1.20;;
42600;SDS011;28229;48.856;9.088;2023-04-24T05:53:55;1.30;;;1.20;;
42600;SDS011;28229;48.856;9.088;2023-04-24T05:56:22;2.07;;;1.40;;
42600;SDS011;28229;48.856;9.088;2023-04-24T05:58:50;1.43;;;1.33;;
42600;SDS011;28229;48.856;9.088;2023-04-24T06:01:18;2.13;;;1.50;;
42600;SDS011;28229;48.856;9.088;2023-04-24T06:03:53;3.03;;;1.73;;
42600;SDS011;28229;48.856;9.088;2023-04-24T06:06:19;1.70;;;1.60;;
42600;SDS011;28229;48.856;9.088;2023-04-24T06:08:51;3.90;;;1.80;;
42600;SDS011;28229;48.856;9.088;2023-04-24T06:11:17;2.53;;;1.70;;
42600;SDS011;28229;48.856;9.088;2023-04-24T06:13:44;1.50;;;1.40;;
42600;SDS011;28229;48.856;9.088;2023-04-24T06:16:36;1.50;;;1.40;;
42600;SDS011;28229;48.856;9.088;2023-04-24T06:19:11;2.40;;;1.70;;
42600;SDS011;28229;48.856;9.088;2023-04-24T06:21:43;1.97;;;1.87;;
42600;SDS011;28229;48.856;9.088;2023-04-24T06:24:09;1.67;;;1.57;;
42600;SDS011;28229;48.856;9.088;2023-04-24T06:26:35;2.27;;;2.07;;
42600;SDS011;28229;48.856;9.088;2023-04-24T06:29:01;2.10;;;1.90;;
42600;SDS011;28229;48.856;9.088;2023-04-24T06:31:37;2.57;;;1.90;;
42600;SDS011;28229;48.856;9.088;2023-04-24T06:34:23;2.03;;;1.93;;
42600;SDS011;28229;48.856;9.088;2023-04-24T06:36:59;2.93;;;1.90;;
42600;SDS011;28229;48.856;9.088;2023-04-24T06:39:30;2.37;;;1.53;;
42600;SDS011;28229;48.856;9.088;2023-04-24T06:41:57;2.03;;;1.83;;
42600;SDS011;28229;48.856;9.088;2023-04-24T06:44:26;1.77;;;1.67;;
42600;SDS011;28229;48.856;9.088;2023-04-24T06:46:52;1.80;;;1.70;;
42600;SDS011;28229;48.856;9.088;2023-04-24T06:49:18;1.93;;;1.73;;
42600;SDS011;28229;48.856;9.088;2023-04-24T06:51:47;2.13;;;1.63;;
42600;SDS011;28229;48.856;9.088;2023-04-24T06:54:13;3.50;;;1.80;;
42600;SDS011;28229;48.856;9.088;2023-04-24T06:56:44;1.60;;;1.50;;
42600;SDS011;28229;48.856;9.088;2023-04-24T06:59:13;2.87;;;1.60;;
42600;SDS011;28229;48.856;9.088;2023-04-24T07:01:41;3.53;;;1.50;;
42600;SDS011;28229;48.856;9.088;2023-04-24T07:04:07;2.10;;;1.70;;
42600;SDS011;28229;48.856;9.088;2023-04-24T07:06:34;1.83;;;1.73;;
42600;SDS011;28229;48.856;9.088;2023-04-24T07:09:01;2.60;;;1.97;;
42600;SDS011;28229;48.856;9.088;2023-04-24T07:11:29;2.00;;;1.80;;
42600;SDS011;28229;48.856;9.088;2023-04-24T07:13:56;2.20;;;1.70;;
42600;SDS011;28229;48.856;9.088;2023-04-24T07:16:22;1.70;;;1.60;;
42600;SDS011;28229;48.856;9.088;2023-04-24T07:18:49;1.70;;;1.60;;
42600;SDS011;28229;48.856;9.088;2023-04-24T07:21:15;2.53;;;1.67;;
42600;SDS011;28229;48.856;9.088;2023-04-24T07:23:41;1.97;;;1.50;;
42600;SDS011;28229;48.856;9.088;2023-04-24T07:26:08;1.43;;;1.30;;
42600;SDS011;28229;48.856;9.088;2023-04-24T07:28:34;2.60;;;1.50;;
42600;SDS011;28229;48.856;9.088;2023-04-24T07:31:00;1.47;;;1.37;;
42600;SDS011;28229;48.856;9.088;2023-04-24T07:33:26;1.70;;;1.60;;
42600;SDS011;28229;48.856;9.088;2023-04-24T07:35:55;1.90;;;1.50;;
42600;SDS011;28229;48.856;9.088;2023-04-24T07:38:22;1.37;;;1.27;;
42600;SDS011;28229;48.856;9.088;2023-04-24T07:40:48;2.57;;;1.70;;
42600;SDS011;28229;48.856;9.088;2023-04-24T07:43:15;2.43;;;1.30;;
42600;SDS011;28229;48.856;9.088;2023-04-24T07:45:41;1.83;;;1.33;;
42600;SDS011;28229;48.856;9.088;2023-04-24T07:48:10;1.40;;;1.30;;
42600;SDS011;28229;48.856;9.088;2023-04-24T07:50:36;2.83;;;1.53;;
42600;SDS011;28229;48.856;9.088;2023-04-24T07:53:02;2.00;;;1.30;;
42600;SDS011;28229;48.856;9.088;2023-04-24T07:55:28;2.03;;;1.30;;
42600;SDS011;28229;48.856;9.088;2023-04-24T07:57:54;1.30;;;1.20;;
42600;SDS011;28229;48.856;9.088;2023-04-24T08:00:21;1.50;;;1.40;;
42600;SDS011;28229;48.856;9.088;2023-04-24T08:02:47;1.67;;;1.30;;
42600;SDS011;28229;48.856;9.088;2023-04-24T08:05:16;1.50;;;1.30;;
42600;SDS011;28229;48.856;9.088;2023-04-24T08:07:42;2.10;;;1.37;;
42600;SDS011;28229;48.856;9.088;2023-04-24T08:10:10;2.23;;;1.47;;
42600;SDS011;28229;48.856;9.088;2023-04-24T08:12:37;1.63;;;1.40;;
42600;SDS011;28229;48.856;9.088;2023-04-24T08:15:06;1.60;;;1.50;;
42600;SDS011;28229;48.856;9.088;2023-04-24T08:17:33;1.93;;;1.40;;
42600;SDS011;28229;48.856;9.088;2023-04-24T08:20:01;3.13;;;1.70;;
42600;SDS011;28229;48.856;9.088;2023-04-24T08:22:29;1.60;;;1.50;;
42600;SDS011;28229;48.856;9.088;2023-04-24T08:24:56;2.43;;;1.40;;
42600;SDS011;28229;48.856;9.088;2023-04-24T08:27:23;1.43;;;1.33;;
42600;SDS011;28229;48.856;9.088;2023-04-24T08:29:49;1.97;;;1.20;;
42600;SDS011;28229;48.856;9.088;2023-04-24T08:32:18;1.30;;;1.30;;
42600;SDS011;28229;48.856;9.088;2023-04-24T08:34:45;1.40;;;1.30;;
42600;SDS011;28229;48.856;9.088;2023-04-24T08:37:11;3.37;;;1.20;;
42600;SDS011;28229;48.856;9.088;2023-04-24T08:39:39;2.10;;;1.10;;
42600;SDS011;28229;48.856;9.088;2023-04-24T08:42:05;1.37;;;1.27;;
42600;SDS011;28229;48.856;9.088;2023-04-24T08:44:34;1.40;;;1.03;;
42600;SDS011;28229;48.856;9.088;2023-04-24T08:47:02;1.07;;;1.07;;
42600;SDS011;28229;48.856;9.088;2023-04-24T08:49:29;1.67;;;1.33;;
42600;SDS011;28229;48.856;9.088;2023-04-24T08:51:55;2.53;;;1.30;;
42600;SDS011;28229;48.856;9.088;2023-04-24T08:54:22;1.20;;;1.10;;
42600;SDS011;28229;48.856;9.088;2023-04-24T08:56:51;1.20;;;1.10;;
42600;SDS011;28229;48.856;9.088;2023-04-24T08:59:19;1.33;;;1.23;;
42600;SDS011;28229;48.856;9.088;2023-04-24T09:01:47;1.30;;;1.20;;
42600;SDS011;28229;48.856;9.088;2023-04-24T09:04:16;1.50;;;1.37;;
42600;SDS011;28229;48.856;9.088;2023-04-24T09:06:48;1.40;;;1.30;;
42600;SDS011;28229;48.856;9.088;2023-04-24T09:09:15;2.07;;;1.57;;
42600;SDS011;28229;48.856;9.088;2023-04-24T09:11:42;2.07;;;1.40;;
42600;SDS011;28229;48.856;9.088;2023-04-24T09:14:09;1.43;;;1.20;;
42600;SDS011;28229;48.856;9.088;2023-04-24T09:16:41;1.83;;;1.30;;
42600;SDS011;28229;48.856;9.088;2023-04-24T09:19:07;0.97;;;0.90;;
42600;SDS011;28229;48.856;9.088;2023-04-24T09:21:36;1.20;;;1.10;;
42600;SDS011;28229;48.856;9.088;2023-04-24T09:24:04;2.03;;;1.10;;
42600;SDS011;28229;48.856;9.088;2023-04-24T09:26:34;0.90;;;0.90;;
42600;SDS011;28229;48.856;9.088;2023-04-24T09:29:02;1.10;;;1.10;;
42600;SDS011;28229;48.856;9.088;2023-04-24T09:31:29;1.40;;;1.30;;
42600;SDS011;28229;48.856;9.088;2023-04-24T09:34:01;1.40;;;1.00;;
42600;SDS011;28229;48.856;9.088;2023-04-24T09:36:30;1.20;;;1.10;;
42600;SDS011;28229;48.856;9.088;2023-04-24T09:39:04;1.20;;;1.10;;
42600;SDS011;28229;48.856;9.088;2023-04-24T09:41:32;1.20;;;1.10;;
42600;SDS011;28229;48.856;9.088;2023-04-24T09:44:20;1.30;;;1.20;;
42600;SDS011;28229;48.856;9.088;2023-04-24T09:46:58;1.77;;;1.10;;
42600;SDS011;28229;48.856;9.088;2023-04-24T09:49:28;1.30;;;1.20;;
42600;SDS011;28229;48.856;9.088;2023-04-24T09:52:05;1.17;;;1.07;;
42600;SDS011;28229;48.856;9.088;2023-04-24T09:54:37;1.33;;;1.10;;
42600;SDS011;28229;48.856;9.088;2023-04-24T09:57:08;1.50;;;1.20;;
42600;SDS011;28229;48.856;9.088;2023-04-24T09:59:35;1.33;;;1.23;;
42600;SDS011;28229;48.856;9.088;2023-04-24T10:02:16;1.87;;;1.20;;
42600;SDS011;28229;48.856;9.088;2023-04-24T10:04:53;1.87;;;1.30;;
42600;SDS011;28229;48.856;9.088;2023-04-24T10:07:21;1.40;;;1.30;;
42600;SDS011;28229;48.856;9.088;2023-04-24T10:09:58;2.20;;;1.37;;
42600;SDS011;28229;48.856;9.088;2023-04-24T10:12:26;1.43;;;1.33;;
42600;SDS011;28229;48.856;9.088;2023-04-24T10:14:54;1.77;;;1.40;;
42600;SDS011;28229;48.856;9.088;2023-04-24T10:17:21;2.23;;;1.00;;
42600;SDS011;28229;48.856;9.088;2023-04-24T10:19:51;1.40;;;1.30;;
42600;SDS011;28229;48.856;9.088;2023-04-24T10:22:20;1.53;;;1.30;;
42600;SDS011;28229;48.856;9.088;2023-04-24T10:24:47;1.40;;;1.30;;
42600;SDS011;28229;48.856;9.088;2023-04-24T10:27:20;1.50;;;1.40;;
42600;SDS011;28229;48.856;9.088;2023-04-24T10:29:49;1.47;;;1.33;;
42600;SDS011;28229;48.856;9.088;2023-04-24T10:32:39;1.57;;;1.47;;
42600;SDS011;28229;48.856;9.088;2023-04-24T10:35:16;1.93;;;1.70;;
42600;SDS011;28229;48.856;9.088;2023-04-24T10:37:58;1.50;;;1.40;;
42600;SDS011;28229;48.856;9.088;2023-04-24T10:41:09;2.10;;;1.50;;
42600;SDS011;28229;48.856;9.088;2023-04-24T10:43:42;1.37;;;1.27;;
42600;SDS011;28229;48.856;9.088;2023-04-24T10:46:19;1.47;;;1.27;;
42600;SDS011;28229;48.856;9.088;2023-04-24T10:48:54;1.57;;;1.20;;
42600;SDS011;28229;48.856;9.088;2023-04-24T10:51:21;1.40;;;1.30;;
42600;SDS011;28229;48.856;9.088;2023-04-24T10:53:51;2.77;;;1.27;;
42600;SDS011;28229;48.856;9.088;2023-04-24T10:56:21;1.70;;;1.40;;
42600;SDS011;28229;48.856;9.088;2023-04-24T10:58:51;1.80;;;1.30;;
42600;SDS011;28229;48.856;9.088;2023-04-24T11:01:29;1.43;;;1.10;;
42600;SDS011;28229;48.856;9.088;2023-04-24T11:04:02;1.10;;;1.10;;
42600;SDS011;28229;48.856;9.088;2023-04-24T11:06:32;1.87;;;1.20;;
42600;SDS011;28229;48.856;9.088;2023-04-24T11:09:07;1.20;;;1.10;;
42600;SDS011;28229;48.856;9.088;2023-04-24T11:11:38;2.37;;;1.30;;
42600;SDS011;28229;48.856;9.088;2023-04-24T11:14:10;1.30;;;1.20;;
42600;SDS011;28229;48.856;9.088;2023-04-24T11:21:54;1.70;;;1.57;;
42600;SDS011;28229;48.856;9.088;2023-04-24T11:27:46;1.60;;;1.40;;
42600;SDS011;28229;48.856;9.088;2023-04-24T11:30:24;1.60;;;1.50;;
42600;SDS011;28229;48.856;9.088;2023-04-24T11:33:12;2.50;;;1.23;;
42600;SDS011;28229;48.856;9.088;2023-04-24T11:35:46;1.53;;;1.37;;
42600;SDS011;28229;48.856;9.088;2023-04-24T11:38:12;1.97;;;1.13;;
42600;SDS011;28229;48.856;9.088;2023-04-24T11:40:42;1.40;;;1.30;;
42600;SDS011;28229;48.856;9.088;2023-04-24T11:43:09;1.57;;;1.37;;
42600;SDS011;28229;48.856;9.088;2023-04-24T11:45:36;1.77;;;1.30;;
42600;SDS011;28229;48.856;9.088;2023-04-24T11:48:04;2.17;;;1.17;;
42600;SDS011;28229;48.856;9.088;2023-04-24T11:50:30;1.23;;;1.23;;
42600;SDS011;28229;48.856;9.088;2023-04-24T11:52:57;1.27;;;1.20;;
42600;SDS011;28229;48.856;9.088;2023-04-24T11:55:24;1.50;;;1.40;;
42600;SDS011;28229;48.856;9.088;2023-04-24T11:57:56;1.40;;;1.30;;
42600;SDS011;28229;48.856;9.088;2023-04-24T12:00:33;1.50;;;1.40;;
42600;SDS011;28229;48.856;9.088;2023-04-24T12:03:12;1.60;;;1.50;;
42600;SDS011;28229;48.856;9.088;2023-04-24T12:05:48;1.60;;;1.50;;
42600;SDS011;28229;48.856;9.088;2023-04-24T12:08:29;1.60;;;1.50;;
42600;SDS011;28229;48.856;9.088;2023-04-24T12:10:55;1.83;;;1.30;;
42600;SDS011;28229;48.856;9.088;2023-04-24T12:13:21;1.67;;;1.50;;
42600;SDS011;28229;48.856;9.088;2023-04-24T12:16:10;1.40;;;1.30;;
42600;SDS011;28229;48.856;9.088;2023-04-24T12:19:05;1.57;;;1.47;;
42600;SDS011;28229;48.856;9.088;2023-04-24T12:21:59;1.30;;;1.20;;
42600;SDS011;28229;48.856;9.088;2023-04-24T12:24:29;1.50;;;1.40;;
42600;SDS011;28229;48.856;9.088;2023-04-24T12:26:56;1.57;;;1.47;;
42600;SDS011;28229;48.856;9.088;2023-04-24T12:29:24;1.40;;;1.30;;
42600;SDS011;28229;48.856;9.088;2023-04-24T12:31:51;1.40;;;1.30;;
42600;SDS011;28229;48.856;9.088;2023-04-24T12:34:25;1.40;;;1.30;;
42600;SDS011;28229;48.856;9.088;2023-04-24T12:36:54;1.40;;;1.30;;
42600;SDS011;28229;48.856;9.088;2023-04-24T12:39:20;1.47;;;1.37;;
42600;SDS011;28229;48.856;9.088;2023-04-24T12:41:58;1.63;;;1.53;;
42600;SDS011;28229;48.856;9.088;2023-04-24T12:44:32;1.40;;;1.30;;
42600;SDS011;28229;48.856;9.088;2023-04-24T12:47:00;1.87;;;1.30;;
42600;SDS011;28229;48.856;9.088;2023-04-24T12:49:28;1.40;;;1.30;;
42600;SDS011;28229;48.856;9.088;2023-04-24T12:51:56;2.10;;;1.20;;
42600;SDS011;28229;48.856;9.088;2023-04-24T12:54:22;1.30;;;1.20;;
42600;SDS011;28229;48.856;9.088;2023-04-24T12:56:48;1.93;;;1.37;;
42600;SDS011;28229;48.856;9.088;2023-04-24T12:59:14;1.33;;;1.23;;
42600;SDS011;28229;48.856;9.088;2023-04-24T13:01:43;1.60;;;1.47;;
42600;SDS011;28229;48.856;9.088;2023-04-24T13:04:10;2.73;;;1.60;;
42600;SDS011;28229;48.856;9.088;2023-04-24T13:06:40;1.60;;;1.50;;
42600;SDS011;28229;48.856;9.088;2023-04-24T13:09:07;2.37;;;1.63;;
42600;SDS011;28229;48.856;9.088;2023-04-24T13:11:34;2.37;;;1.77;;
42600;SDS011;28229;48.856;9.088;2023-04-24T13:14:02;1.90;;;1.80;;
42600;SDS011;28229;48.856;9.088;2023-04-24T13:16:28;2.27;;;1.90;;
42600;SDS011;28229;48.856;9.088;2023-04-24T13:18:59;2.63;;;2.20;;
42600;SDS011;28229;48.856;9.088;2023-04-24T13:21:25;2.30;;;2.10;;
42600;SDS011;28229;48.856;9.088;2023-04-24T13:23:55;2.40;;;2.10;;
42600;SDS011;28229;48.856;9.088;2023-04-24T13:26:24;2.10;;;1.90;;
42600;SDS011;28229;48.856;9.088;2023-04-24T13:28:54;2.10;;;1.90;;
42600;SDS011;28229;48.856;9.088;2023-04-24T13:31:20;2.50;;;2.30;;
42600;SDS011;28229;48.856;9.088;2023-04-24T13:33:47;3.17;;;1.90;;
42600;SDS011;28229;48.856;9.088;2023-04-24T13:36:14;2.47;;;1.93;;
42600;SDS011;28229;48.856;9.088;2023-04-24T13:38:53;2.70;;;1.90;;
42600;SDS011;28229;48.856;9.088;2023-04-24T13:41:20;1.77;;;1.67;;
42600;SDS011;28229;48.856;9.088;2023-04-24T13:43:46;2.77;;;1.73;;
42600;SDS011;28229;48.856;9.088;2023-04-24T13:46:14;4.33;;;1.50;;
42600;SDS011;28229;48.856;9.088;2023-04-24T13:48:40;3.07;;;1.77;;
42600;SDS011;28229;48.856;9.088;2023-04-24T13:51:07;2.20;;;1.93;;
42600;SDS011;28229;48.856;9.088;2023-04-24T13:53:33;2.00;;;1.80;;
42600;SDS011;28229;48.856;9.088;2023-04-24T13:56:04;2.90;;;1.70;;
42600;SDS011;28229;48.856;9.088;2023-04-24T13:58:31;1.90;;;1.80;;
42600;SDS011;28229;48.856;9.088;2023-04-24T14:01:02;2.03;;;1.83;;
42600;SDS011;28229;48.856;9.088;2023-04-24T14:03:30;3.80;;;2.00;;
42600;SDS011;28229;48.856;9.088;2023-04-24T14:05:57;2.93;;;2.20;;
42600;SDS011;28229;48.856;9.088;2023-04-24T14:11:11;1.97;;;1.70;;
42600;SDS011;28229;48.856;9.088;2023-04-24T14:13:37;1.87;;;1.77;;
42600;SDS011;28229;48.856;9.088;2023-04-24T14:16:04;1.70;;;1.60;;
42600;SDS011;28229;48.856;9.088;2023-04-24T14:18:30;1.60;;;1.50;;
42600;SDS011;28229;48.856;9.088;2023-04-24T14:20:56;1.87;;;1.77;;
42600;SDS011;28229;48.856;9.088;2023-04-24T14:23:23;1.87;;;1.77;;
42600;SDS011;28229;48.856;9.088;2023-04-24T14:25:49;1.80;;;1.70;;
42600;SDS011;28229;48.856;9.088;2023-04-24T14:28:18;2.10;;;1.80;;
42600;SDS011;28229;48.856;9.088;2023-04-24T14:30:46;2.07;;;1.83;;
42600;SDS011;28229;48.856;9.088;2023-04-24T14:33:12;1.93;;;1.60;;
42600;SDS011;28229;48.856;9.088;2023-04-24T14:35:39;1.70;;;1.60;;
42600;SDS011;28229;48.856;9.088;2023-04-24T14:38:07;1.70;;;1.60;;
42600;SDS011;28229;48.856;9.088;2023-04-24T14:40:34;2.40;;;1.80;;
42600;SDS011;28229;48.856;9.088;2023-04-24T14:43:01;1.83;;;1.60;;
42600;SDS011;28229;48.856;9.088;2023-04-24T14:45:27;1.50;;;1.40;;
42600;SDS011;28229;48.856;9.088;2023-04-24T14:47:53;1.73;;;1.57;;
42600;SDS011;28229;48.856;9.088;2023-04-24T14:50:21;3.03;;;1.47;;
42600;SDS011;28229;48.856;9.088;2023-04-24T14:52:48;1.73;;;1.40;;
42600;SDS011;28229;48.856;9.088;2023-04-24T14:55:14;1.70;;;1.60;;
42600;SDS011;28229;48.856;9.088;2023-04-24T14:57:40;1.60;;;1.50;;
42600;SDS011;28229;48.856;9.088;2023-04-24T15:00:06;2.40;;;1.90;;
42600;SDS011;28229;48.856;9.088;2023-04-24T15:02:35;1.93;;;1.57;;
42600;SDS011;28229;48.856;9.088;2023-04-24T15:05:05;2.20;;;1.90;;
42600;SDS011;28229;48.856;9.088;2023-04-24T15:07:32;1.70;;;1.60;;
42600;SDS011;28229;48.856;9.088;2023-04-24T15:09:58;1.83;;;1.73;;
42600;SDS011;28229;48.856;9.088;2023-04-24T15:12:25;1.90;;;1.80;;
42600;SDS011;28229;48.856;9.088;2023-04-24T15:14:51;2.63;;;1.83;;
42600;SDS011;28229;48.856;9.088;2023-04-24T15:17:17;2.13;;;1.60;;
42600;SDS011;28229;48.856;9.088;2023-04-24T15:19:43;3.27;;;1.80;;
42600;SDS011;28229;48.856;9.088;2023-04-24T15:22:09;1.70;;;1.53;;
42600;SDS011;28229;48.856;9.088;2023-04-24T15:24:36;1.93;;;1.50;;